sensor_id;sensor_type;location;lat;lon;timestamp;P1;durP1;ratioP1;P2;durP2;ratioP2
52072;SDS011;38074;51.232;6.826;2023-06-04T00:03:22;0.80;;;0.40;;
52072;SDS011;38074;51.232;6.826;2023-06-04T00:10:38;2.90;;;0.43;;
52072;SDS011;38074;51.232;6.826;2023-06-04T00:17:55;1.67;;;0.60;;
52072;SDS011;38074;51.232;6.826;2023-06-04T00:25:11;0.90;;;0.40;;
52072;SDS011;38074;51.232;6.826;2023-06-04T00:32:27;1.30;;;0.40;;
52072;SDS011;38074;51.232;6.826;2023-06-04T00:39:42;1.40;;;0.40;;
52072;SDS011;38074;51.232;6.826;2023-06-04T00:46:58;2.90;;;0.37;;
52072;SDS011;38074;51.232;6.826;2023-06-04T00:54:14;3.05;;;0.65;;
52072;SDS011;38074;51.232;6.826;2023-06-04T01:01:45;4.97;;;0.60;;
52072;SDS011;38074;51.232;6.826;2023-06-04T01:09:21;2.08;;;0.60;;
52072;SDS011;38074;51.232;6.826;2023-06-04T01:24:05;0.77;;;0.50;;
52072;SDS011;38074;51.232;6.826;2023-06-04T01:31:23;0.77;;;0.40;;
52072;SDS011;38074;51.232;6.826;2023-06-04T01:45:56;1.27;;;0.70;;
52072;SDS011;38074;51.232;6.826;2023-06-04T01:53:11;1.63;;;0.70;;
52072;SDS011;38074;51.232;6.826;2023-06-04T02:00:27;2.93;;;0.80;;
52072;SDS011;38074;51.232;6.826;2023-06-04T02:07:43;1.93;;;0.77;;
52072;SDS011;38074;51.232;6.826;2023-06-04T02:14:59;1.35;;;0.63;;
52072;SDS011;38074;51.232;6.826;2023-06-04T02:22:16;1.63;;;0.70;;
52072;SDS011;38074;51.232;6.826;2023-06-04T02:29:32;1.60;;;0.57;;
52072;SDS011;38074;51.232;6.826;2023-06-04T02:36:47;1.73;;;0.80;;
52072;SDS011;38074;51.232;6.826;2023-06-04T02:44:06;1.35;;;0.63;;
52072;SDS011;38074;51.232;6.826;2023-06-04T02:51:21;2.85;;;0.80;;
52072;SDS011;38074;51.232;6.826;2023-06-04T02:58:37;1.13;;;0.60;;
52072;SDS011;38074;51.232;6.826;2023-06-04T03:05:54;1.10;;;0.60;;
52072;SDS011;38074;51.232;6.826;2023-06-04T03:13:10;1.50;;;0.70;;
52072;SDS011;38074;51.232;6.826;2023-06-04T03:20:26;2.27;;;0.70;;
52072;SDS011;38074;51.232;6.826;2023-06-04T03:27:41;1.23;;;0.68;;
52072;SDS011;38074;51.232;6.826;2023-06-04T03:34:56;3.57;;;0.80;;
52072;SDS011;38074;51.232;6.826;2023-06-04T03:42:12;1.50;;;0.70;;
52072;SDS011;38074;51.232;6.826;2023-06-04T03:49:28;2.73;;;0.90;;
52072;SDS011;38074;51.232;6.826;2023-06-04T03:56:46;4.63;;;1.13;;
52072;SDS011;38074;51.232;6.826;2023-06-04T04:04:02;2.83;;;0.93;;
52072;SDS011;38074;51.232;6.826;2023-06-04T04:11:18;3.33;;;0.98;;
52072;SDS011;38074;51.232;6.826;2023-06-04T04:18:34;3.80;;;0.75;;
52072;SDS011;38074;51.232;6.826;2023-06-04T04:25:51;1.35;;;0.60;;
52072;SDS011;38074;51.232;6.826;2023-06-04T04:33:08;3.10;;;0.80;;
52072;SDS011;38074;51.232;6.826;2023-06-04T04:40:25;1.17;;;0.60;;
52072;SDS011;38074;51.232;6.826;2023-06-04T04:47:40;2.10;;;0.80;;
52072;SDS011;38074;51.232;6.826;2023-06-04T04:54:56;1.03;;;0.60;;
52072;SDS011;38074;51.232;6.826;2023-06-04T05:02:12;1.90;;;0.70;;
52072;SDS011;38074;51.232;6.826;2023-06-04T05:09:28;1.70;;;0.73;;
52072;SDS011;38074;51.232;6.826;2023-06-04T05:16:43;2.83;;;1.10;;
52072;SDS011;38074;51.232;6.826;2023-06-04T05:23:59;2.00;;;0.60;;
52072;SDS011;38074;51.232;6.826;2023-06-04T05:31:14;1.80;;;0.90;;
52072;SDS011;38074;51.232;6.826;2023-06-04T05:38:33;2.10;;;0.60;;
52072;SDS011;38074;51.232;6.826;2023-06-04T05:45:50;4.45;;;0.65;;
52072;SDS011;38074;51.232;6.826;2023-06-04T05:53:09;3.13;;;0.68;;
52072;SDS011;38074;51.232;6.826;2023-06-04T06:00:24;2.47;;;0.70;;
52072;SDS011;38074;51.232;6.826;2023-06-04T06:07:40;2.37;;;0.73;;
52072;SDS011;38074;51.232;6.826;2023-06-04T06:14:56;1.52;;;0.70;;
52072;SDS011;38074;51.232;6.826;2023-06-04T06:22:12;5.82;;;1.13;;
52072;SDS011;38074;51.232;6.826;2023-06-04T06:29:28;4.05;;;1.00;;
52072;SDS011;38074;51.232;6.826;2023-06-04T06:36:43;10.70;;;0.93;;
52072;SDS011;38074;51.232;6.826;2023-06-04T06:43:59;3.87;;;1.10;;
52072;SDS011;38074;51.232;6.826;2023-06-04T06:51:14;4.78;;;1.08;;
52072;SDS011;38074;51.232;6.826;2023-06-04T06:58:30;2.72;;;0.90;;
52072;SDS011;38074;51.232;6.826;2023-06-04T07:05:46;3.37;;;1.00;;
52072;SDS011;38074;51.232;6.826;2023-06-04T07:13:01;3.63;;;1.40;;
52072;SDS011;38074;51.232;6.826;2023-06-04T07:20:17;1.60;;;1.20;;
52072;SDS011;38074;51.232;6.826;2023-06-04T07:27:33;2.53;;;1.23;;
52072;SDS011;38074;51.232;6.826;2023-06-04T07:34:49;4.10;;;1.20;;
52072;SDS011;38074;51.232;6.826;2023-06-04T07:42:04;2.67;;;1.30;;
52072;SDS011;38074;51.232;6.826;2023-06-04T07:49:22;2.63;;;1.30;;
52072;SDS011;38074;51.232;6.826;2023-06-04T07:56:37;5.30;;;1.67;;
52072;SDS011;38074;51.232;6.826;2023-06-04T08:03:53;2.73;;;1.57;;
52072;SDS011;38074;51.232;6.826;2023-06-04T08:11:08;2.40;;;1.20;;
52072;SDS011;38074;51.232;6.826;2023-06-04T08:18:24;4.28;;;1.75;;
52072;SDS011;38074;51.232;6.826;2023-06-04T08:25:39;4.50;;;1.60;;
52072;SDS011;38074;51.232;6.826;2023-06-04T08:32:55;2.70;;;1.30;;
52072;SDS011;38074;51.232;6.826;2023-06-04T08:40:11;3.50;;;1.50;;
52072;SDS011;38074;51.232;6.826;2023-06-04T08:47:27;5.55;;;1.60;;
52072;SDS011;38074;51.232;6.826;2023-06-04T08:54:44;3.22;;;1.50;;
52072;SDS011;38074;51.232;6.826;2023-06-04T09:01:59;3.72;;;1.30;;
52072;SDS011;38074;51.232;6.826;2023-06-04T09:09:15;5.25;;;1.48;;
52072;SDS011;38074;51.232;6.826;2023-06-04T09:16:41;7.30;;;1.65;;
52072;SDS011;38074;51.232;6.826;2023-06-04T09:23:57;8.20;;;1.67;;
52072;SDS011;38074;51.232;6.826;2023-06-04T09:31:13;6.10;;;1.57;;
52072;SDS011;38074;51.232;6.826;2023-06-04T09:38:36;3.92;;;1.35;;
52072;SDS011;38074;51.232;6.826;2023-06-04T09:45:52;5.38;;;1.30;;
52072;SDS011;38074;51.232;6.826;2023-06-04T09:53:14;6.20;;;1.20;;
52072;SDS011;38074;51.232;6.826;2023-06-04T10:00:37;3.88;;;1.27;;
52072;SDS011;38074;51.232;6.826;2023-06-04T10:07:52;2.70;;;1.20;;
52072;SDS011;38074;51.232;6.826;2023-06-04T10:15:12;5.00;;;1.02;;
52072;SDS011;38074;51.232;6.826;2023-06-04T10:22:29;3.77;;;0.97;;
52072;SDS011;38074;51.232;6.826;2023-06-04T10:29:45;3.50;;;0.83;;
52072;SDS011;38074;51.232;6.826;2023-06-04T10:37:01;4.03;;;0.85;;
52072;SDS011;38074;51.232;6.826;2023-06-04T10:44:17;1.80;;;0.70;;
52072;SDS011;38074;51.232;6.826;2023-06-04T10:51:34;2.15;;;0.73;;
52072;SDS011;38074;51.232;6.826;2023-06-04T10:58:52;1.55;;;0.52;;
52072;SDS011;38074;51.232;6.826;2023-06-04T11:06:16;1.48;;;0.68;;
52072;SDS011;38074;51.232;6.826;2023-06-04T11:13:32;2.17;;;0.90;;
52072;SDS011;38074;51.232;6.826;2023-06-04T11:20:49;2.23;;;0.53;;
52072;SDS011;38074;51.232;6.826;2023-06-04T11:28:16;1.25;;;0.50;;
52072;SDS011;38074;51.232;6.826;2023-06-04T11:35:39;1.00;;;0.60;;
52072;SDS011;38074;51.232;6.826;2023-06-04T11:42:56;1.77;;;0.47;;
52072;SDS011;38074;51.232;6.826;2023-06-04T11:50:12;1.65;;;0.52;;
52072;SDS011;38074;51.232;6.826;2023-06-04T11:57:28;1.23;;;0.50;;
52072;SDS011;38074;51.232;6.826;2023-06-04T12:04:45;2.30;;;0.50;;
52072;SDS011;38074;51.232;6.826;2023-06-04T12:12:01;1.07;;;0.60;;
52072;SDS011;38074;51.232;6.826;2023-06-04T12:19:18;1.50;;;0.60;;
52072;SDS011;38074;51.232;6.826;2023-06-04T12:26:34;0.80;;;0.63;;
52072;SDS011;38074;51.232;6.826;2023-06-04T12:33:55;1.00;;;0.40;;
52072;SDS011;38074;51.232;6.826;2023-06-04T12:41:11;1.50;;;0.43;;
52072;SDS011;38074;51.232;6.826;2023-06-04T12:48:26;1.30;;;0.50;;
52072;SDS011;38074;51.232;6.826;2023-06-04T12:55:42;0.80;;;0.40;;
52072;SDS011;38074;51.232;6.826;2023-06-04T13:02:58;1.27;;;0.30;;
52072;SDS011;38074;51.232;6.826;2023-06-04T13:10:14;0.57;;;0.30;;
52072;SDS011;38074;51.232;6.826;2023-06-04T13:17:30;1.07;;;0.47;;
52072;SDS011;38074;51.232;6.826;2023-06-04T13:32:03;0.97;;;0.50;;
52072;SDS011;38074;51.232;6.826;2023-06-04T13:39:18;1.50;;;0.40;;
52072;SDS011;38074;51.232;6.826;2023-06-04T13:46:34;0.70;;;0.40;;
52072;SDS011;38074;51.232;6.826;2023-06-04T13:53:49;0.40;;;0.20;;
52072;SDS011;38074;51.232;6.826;2023-06-04T14:01:07;3.72;;;0.40;;
52072;SDS011;38074;51.232;6.826;2023-06-04T14:08:22;0.40;;;0.20;;
52072;SDS011;38074;51.232;6.826;2023-06-04T14:15:38;0.70;;;0.30;;
52072;SDS011;38074;51.232;6.826;2023-06-04T14:22:53;0.77;;;0.40;;
52072;SDS011;38074;51.232;6.826;2023-06-04T14:30:09;0.87;;;0.30;;
52072;SDS011;38074;51.232;6.826;2023-06-04T14:37:25;0.73;;;0.32;;
52072;SDS011;38074;51.232;6.826;2023-06-04T14:44:41;23.98;;;3.08;;
52072;SDS011;38074;51.232;6.826;2023-06-04T14:51:57;12.55;;;2.28;;
52072;SDS011;38074;51.232;6.826;2023-06-04T14:59:12;9.15;;;1.38;;
52072;SDS011;38074;51.232;6.826;2023-06-04T15:06:28;7.20;;;1.10;;
52072;SDS011;38074;51.232;6.826;2023-06-04T15:13:43;13.67;;;1.57;;
52072;SDS011;38074;51.232;6.826;2023-06-04T15:20:59;4.65;;;1.00;;
52072;SDS011;38074;51.232;6.826;2023-06-04T15:28:15;5.63;;;1.30;;
52072;SDS011;38074;51.232;6.826;2023-06-04T15:35:30;4.50;;;1.10;;
52072;SDS011;38074;51.232;6.826;2023-06-04T15:42:46;2.23;;;0.80;;
52072;SDS011;38074;51.232;6.826;2023-06-04T15:50:01;3.37;;;1.00;;
52072;SDS011;38074;51.232;6.826;2023-06-04T15:57:17;1.25;;;0.70;;
52072;SDS011;38074;51.232;6.826;2023-06-04T16:04:33;6.60;;;1.30;;
52072;SDS011;38074;51.232;6.826;2023-06-04T16:11:48;5.60;;;1.20;;
52072;SDS011;38074;51.232;6.826;2023-06-04T16:19:04;4.35;;;1.40;;
52072;SDS011;38074;51.232;6.826;2023-06-04T16:26:20;5.50;;;1.05;;
52072;SDS011;38074;51.232;6.826;2023-06-04T16:33:36;3.42;;;1.20;;
52072;SDS011;38074;51.232;6.826;2023-06-04T16:40:53;2.87;;;1.00;;
52072;SDS011;38074;51.232;6.826;2023-06-04T16:48:08;3.00;;;1.40;;
52072;SDS011;38074;51.232;6.826;2023-06-04T16:55:30;3.70;;;1.50;;
52072;SDS011;38074;51.232;6.826;2023-06-04T17:02:47;5.60;;;1.42;;
52072;SDS011;38074;51.232;6.826;2023-06-04T17:10:03;2.03;;;1.33;;
52072;SDS011;38074;51.232;6.826;2023-06-04T17:17:18;18.50;;;3.08;;
52072;SDS011;38074;51.232;6.826;2023-06-04T17:24:34;39.50;;;6.17;;
52072;SDS011;38074;51.232;6.826;2023-06-04T17:31:49;22.95;;;4.57;;
52072;SDS011;38074;51.232;6.826;2023-06-04T17:39:06;15.48;;;3.15;;
52072;SDS011;38074;51.232;6.826;2023-06-04T17:46:22;13.38;;;3.53;;
52072;SDS011;38074;51.232;6.826;2023-06-04T17:53:37;17.38;;;3.45;;
52072;SDS011;38074;51.232;6.826;2023-06-04T18:00:53;8.73;;;1.97;;
52072;SDS011;38074;51.232;6.826;2023-06-04T18:08:11;8.97;;;1.93;;
52072;SDS011;38074;51.232;6.826;2023-06-04T18:15:27;3.13;;;1.50;;
52072;SDS011;38074;51.232;6.826;2023-06-04T18:22:43;2.77;;;1.67;;
52072;SDS011;38074;51.232;6.826;2023-06-04T18:29:59;4.53;;;1.57;;
52072;SDS011;38074;51.232;6.826;2023-06-04T18:37:14;3.60;;;1.25;;
52072;SDS011;38074;51.232;6.826;2023-06-04T18:44:30;3.55;;;1.20;;
52072;SDS011;38074;51.232;6.826;2023-06-04T18:51:45;6.20;;;1.20;;
52072;SDS011;38074;51.232;6.826;2023-06-04T19:06:18;4.97;;;1.40;;
52072;SDS011;38074;51.232;6.826;2023-06-04T19:13:34;6.13;;;1.17;;
52072;SDS011;38074;51.232;6.826;2023-06-04T19:20:49;7.30;;;1.73;;
52072;SDS011;38074;51.232;6.826;2023-06-04T19:28:05;7.15;;;1.80;;
52072;SDS011;38074;51.232;6.826;2023-06-04T19:35:21;4.95;;;1.30;;
52072;SDS011;38074;51.232;6.826;2023-06-04T19:42:37;4.18;;;1.35;;
52072;SDS011;38074;51.232;6.826;2023-06-04T19:49:55;4.75;;;1.45;;
52072;SDS011;38074;51.232;6.826;2023-06-04T19:57:11;5.72;;;2.00;;
52072;SDS011;38074;51.232;6.826;2023-06-04T20:04:27;7.88;;;1.38;;
52072;SDS011;38074;51.232;6.826;2023-06-04T20:11:42;4.73;;;1.33;;
52072;SDS011;38074;51.232;6.826;2023-06-04T20:18:58;4.00;;;1.57;;
52072;SDS011;38074;51.232;6.826;2023-06-04T20:26:14;5.67;;;1.53;;
52072;SDS011;38074;51.232;6.826;2023-06-04T20:33:29;7.93;;;1.52;;
52072;SDS011;38074;51.232;6.826;2023-06-04T20:40:45;3.58;;;1.20;;
52072;SDS011;38074;51.232;6.826;2023-06-04T20:48:01;6.70;;;1.25;;
52072;SDS011;38074;51.232;6.826;2023-06-04T20:55:16;2.60;;;1.00;;
52072;SDS011;38074;51.232;6.826;2023-06-04T21:02:33;3.93;;;1.20;;
52072;SDS011;38074;51.232;6.826;2023-06-04T21:09:48;2.10;;;1.27;;
52072;SDS011;38074;51.232;6.826;2023-06-04T21:17:04;21.80;;;2.60;;
52072;SDS011;38074;51.232;6.826;2023-06-04T21:24:20;12.48;;;1.67;;
52072;SDS011;38074;51.232;6.826;2023-06-04T21:31:35;8.07;;;1.20;;
52072;SDS011;38074;51.232;6.826;2023-06-04T21:38:51;2.77;;;0.77;;
52072;SDS011;38074;51.232;6.826;2023-06-04T21:46:06;11.57;;;1.40;;
52072;SDS011;38074;51.232;6.826;2023-06-04T21:53:22;3.97;;;1.00;;
52072;SDS011;38074;51.232;6.826;2023-06-04T22:00:37;2.77;;;0.77;;
52072;SDS011;38074;51.232;6.826;2023-06-04T22:07:53;5.10;;;0.70;;
52072;SDS011;38074;51.232;6.826;2023-06-04T22:15:09;2.70;;;0.80;;
52072;SDS011;38074;51.232;6.826;2023-06-04T22:22:24;5.10;;;1.08;;
52072;SDS011;38074;51.232;6.826;2023-06-04T22:29:40;6.53;;;0.93;;
52072;SDS011;38074;51.232;6.826;2023-06-04T22:36:55;15.52;;;2.30;;
52072;SDS011;38074;51.232;6.826;2023-06-04T22:44:11;9.43;;;1.30;;
52072;SDS011;38074;51.232;6.826;2023-06-04T22:51:26;5.13;;;1.20;;
52072;SDS011;38074;51.232;6.826;2023-06-04T22:58:42;4.47;;;1.10;;
52072;SDS011;38074;51.232;6.826;2023-06-04T23:05:57;10.57;;;1.50;;
52072;SDS011;38074;51.232;6.826;2023-06-04T23:13:13;4.65;;;1.52;;
52072;SDS011;38074;51.232;6.826;2023-06-04T23:20:29;4.80;;;1.67;;
52072;SDS011;38074;51.232;6.826;2023-06-04T23:27:44;5.17;;;1.40;;
52072;SDS011;38074;51.232;6.826;2023-06-04T23:35:00;10.87;;;1.53;;
52072;SDS011;38074;51.232;6.826;2023-06-04T23:42:15;4.47;;;1.37;;
52072;SDS011;38074;51.232;6.826;2023-06-04T23:49:31;7.70;;;1.23;;
52072;SDS011;38074;51.232;6.826;2023-06-04T23:56:47;1.83;;;0.90;;
